sensor_id;sensor_type;location;lat;lon;timestamp;temperature;humidity
45012;DHT22;63444;48.148;11.542;2023-04-03T00:00:40;5.70;99.90
45012;DHT22;63444;48.148;11.542;2023-04-03T00:03:05;5.70;99.90
45012;DHT22;63444;48.148;11.542;2023-04-03T00:05:31;5.70;99.90
45012;DHT22;63444;48.148;11.542;2023-04-03T00:07:56;5.70;99.90
45012;DHT22;63444;48.148;11.542;2023-04-03T00:10:22;5.70;99.90
45012;DHT22;63444;48.148;11.542;2023-04-03T00:12:48;5.70;99.90
45012;DHT22;63444;48.148;11.542;2023-04-03T00:15:13;5.70;99.90
45012;DHT22;63444;48.148;11.542;2023-04-03T00:17:39;5.70;99.90
45012;DHT22;63444;48.148;11.542;2023-04-03T00:20:05;5.70;99.90
45012;DHT22;63444;48.148;11.542;2023-04-03T00:22:31;5.70;99.90
45012;DHT22;63444;48.148;11.542;2023-04-03T00:24:56;5.60;99.90
45012;DHT22;63444;48.148;11.542;2023-04-03T00:27:22;5.70;99.90
45012;DHT22;63444;48.148;11.542;2023-04-03T00:29:47;5.60;99.90
45012;DHT22;63444;48.148;11.542;2023-04-03T00:32:13;5.60;99.90
45012;DHT22;63444;48.148;11.542;2023-04-03T00:34:39;5.60;99.90
45012;DHT22;63444;48.148;11.542;2023-04-03T00:37:04;5.60;99.90
45012;DHT22;63444;48.148;11.542;2023-04-03T00:39:30;5.70;99.90
45012;DHT22;63444;48.148;11.542;2023-04-03T00:41:56;5.70;99.90
45012;DHT22;63444;48.148;11.542;2023-04-03T00:45:21;5.50;99.90
45012;DHT22;63444;48.148;11.542;2023-04-03T00:47:11;5.70;99.90
45012;DHT22;63444;48.148;11.542;2023-04-03T00:49:41;5.70;99.90
45012;DHT22;63444;48.148;11.542;2023-04-03T00:52:11;5.70;99.90
45012;DHT22;63444;48.148;11.542;2023-04-03T00:54:39;5.70;99.90
45012;DHT22;63444;48.148;11.542;2023-04-03T00:57:06;5.70;99.90
45012;DHT22;63444;48.148;11.542;2023-04-03T00:59:36;5.70;99.90
45012;DHT22;63444;48.148;11.542;2023-04-03T01:02:05;5.70;99.90
45012;DHT22;63444;48.148;11.542;2023-04-03T01:04:42;5.60;99.90
45012;DHT22;63444;48.148;11.542;2023-04-03T01:07:10;5.60;99.90
45012;DHT22;63444;48.148;11.542;2023-04-03T01:09:37;5.60;99.90
45012;DHT22;63444;48.148;11.542;2023-04-03T01:12:18;5.60;99.90
45012;DHT22;63444;48.148;11.542;2023-04-03T01:14:45;5.60;99.90
45012;DHT22;63444;48.148;11.542;2023-04-03T01:17:38;5.60;99.90
45012;DHT22;63444;48.148;11.542;2023-04-03T01:25:29;5.60;99.90
45012;DHT22;63444;48.148;11.542;2023-04-03T01:27:54;5.60;99.90
45012;DHT22;63444;48.148;11.542;2023-04-03T01:30:21;5.60;99.90
45012;DHT22;63444;48.148;11.542;2023-04-03T01:32:49;5.50;99.90
45012;DHT22;63444;48.148;11.542;2023-04-03T01:35:15;5.50;99.90
45012;DHT22;63444;48.148;11.542;2023-04-03T01:37:40;5.50;99.90
45012;DHT22;63444;48.148;11.542;2023-04-03T01:40:06;5.50;99.90
45012;DHT22;63444;48.148;11.542;2023-04-03T01:42:32;5.50;99.90
45012;DHT22;63444;48.148;11.542;2023-04-03T01:44:58;5.50;99.90
45012;DHT22;63444;48.148;11.542;2023-04-03T01:47:24;5.50;99.90
45012;DHT22;63444;48.148;11.542;2023-04-03T01:49:50;5.40;99.90
45012;DHT22;63444;48.148;11.542;2023-04-03T01:52:17;5.40;99.90
45012;DHT22;63444;48.148;11.542;2023-04-03T01:54:43;5.50;99.90
45012;DHT22;63444;48.148;11.542;2023-04-03T01:57:10;5.40;99.90
45012;DHT22;63444;48.148;11.542;2023-04-03T01:59:38;5.40;99.90
45012;DHT22;63444;48.148;11.542;2023-04-03T02:02:07;5.40;99.90
45012;DHT22;63444;48.148;11.542;2023-04-03T02:04:33;5.40;99.90
45012;DHT22;63444;48.148;11.542;2023-04-03T02:06:59;5.40;99.90
45012;DHT22;63444;48.148;11.542;2023-04-03T02:09:24;5.30;99.90
45012;DHT22;63444;48.148;11.542;2023-04-03T02:11:51;5.30;99.90
45012;DHT22;63444;48.148;11.542;2023-04-03T02:14:18;5.30;99.90
45012;DHT22;63444;48.148;11.542;2023-04-03T02:16:43;5.40;99.90
45012;DHT22;63444;48.148;11.542;2023-04-03T02:19:09;5.30;99.90
45012;DHT22;63444;48.148;11.542;2023-04-03T02:21:35;5.30;99.90
45012;DHT22;63444;48.148;11.542;2023-04-03T02:24:01;5.20;99.90
45012;DHT22;63444;48.148;11.542;2023-04-03T02:26:26;5.30;99.90
45012;DHT22;63444;48.148;11.542;2023-04-03T02:28:54;5.30;99.90
45012;DHT22;63444;48.148;11.542;2023-04-03T02:31:20;5.30;99.90
45012;DHT22;63444;48.148;11.542;2023-04-03T02:33:46;5.30;99.90
45012;DHT22;63444;48.148;11.542;2023-04-03T02:36:13;5.30;99.90
45012;DHT22;63444;48.148;11.542;2023-04-03T02:38:38;5.20;99.90
45012;DHT22;63444;48.148;11.542;2023-04-03T02:41:07;5.20;99.90
45012;DHT22;63444;48.148;11.542;2023-04-03T02:43:34;5.20;99.90
45012;DHT22;63444;48.148;11.542;2023-04-03T02:46:00;5.20;99.90
45012;DHT22;63444;48.148;11.542;2023-04-03T02:48:26;5.20;99.90
45012;DHT22;63444;48.148;11.542;2023-04-03T02:50:52;5.40;99.90
45012;DHT22;63444;48.148;11.542;2023-04-03T02:53:19;5.20;99.90
45012;DHT22;63444;48.148;11.542;2023-04-03T02:55:44;5.20;99.90
45012;DHT22;63444;48.148;11.542;2023-04-03T02:58:10;5.20;99.90
45012;DHT22;63444;48.148;11.542;2023-04-03T03:00:36;5.20;99.90
45012;DHT22;63444;48.148;11.542;2023-04-03T03:03:02;5.20;99.90
45012;DHT22;63444;48.148;11.542;2023-04-03T03:05:28;5.20;99.90
45012;DHT22;63444;48.148;11.542;2023-04-03T03:07:54;5.20;99.90
45012;DHT22;63444;48.148;11.542;2023-04-03T03:10:23;5.20;99.90
45012;DHT22;63444;48.148;11.542;2023-04-03T03:12:48;5.20;99.90
45012;DHT22;63444;48.148;11.542;2023-04-03T03:15:14;5.20;99.90
45012;DHT22;63444;48.148;11.542;2023-04-03T03:17:41;5.20;99.90
45012;DHT22;63444;48.148;11.542;2023-04-03T03:20:07;5.20;99.90
45012;DHT22;63444;48.148;11.542;2023-04-03T03:22:36;5.20;99.90
45012;DHT22;63444;48.148;11.542;2023-04-03T03:25:02;5.20;99.90
45012;DHT22;63444;48.148;11.542;2023-04-03T03:27:28;5.20;99.90
45012;DHT22;63444;48.148;11.542;2023-04-03T03:29:54;5.20;99.90
45012;DHT22;63444;48.148;11.542;2023-04-03T03:32:22;5.20;99.90
45012;DHT22;63444;48.148;11.542;2023-04-03T03:34:48;5.20;99.90
45012;DHT22;63444;48.148;11.542;2023-04-03T03:37:15;5.20;99.90
45012;DHT22;63444;48.148;11.542;2023-04-03T03:39:40;5.10;99.90
45012;DHT22;63444;48.148;11.542;2023-04-03T03:42:07;5.10;99.90
45012;DHT22;63444;48.148;11.542;2023-04-03T03:44:33;5.10;99.90
45012;DHT22;63444;48.148;11.542;2023-04-03T03:46:59;5.20;99.90
45012;DHT22;63444;48.148;11.542;2023-04-03T03:49:25;5.20;99.90
45012;DHT22;63444;48.148;11.542;2023-04-03T03:51:51;5.20;99.90
45012;DHT22;63444;48.148;11.542;2023-04-03T03:54:17;5.20;99.90
45012;DHT22;63444;48.148;11.542;2023-04-03T03:56:43;5.20;99.90
45012;DHT22;63444;48.148;11.542;2023-04-03T03:59:10;5.20;99.90
45012;DHT22;63444;48.148;11.542;2023-04-03T04:01:36;5.20;99.90
45012;DHT22;63444;48.148;11.542;2023-04-03T04:04:02;5.20;99.90
45012;DHT22;63444;48.148;11.542;2023-04-03T04:06:27;5.30;99.90
45012;DHT22;63444;48.148;11.542;2023-04-03T04:08:53;5.20;99.90
45012;DHT22;63444;48.148;11.542;2023-04-03T04:11:19;5.20;99.90
45012;DHT22;63444;48.148;11.542;2023-04-03T04:13:48;5.20;99.90
45012;DHT22;63444;48.148;11.542;2023-04-03T04:16:17;5.10;99.90
45012;DHT22;63444;48.148;11.542;2023-04-03T04:18:43;5.10;99.90
45012;DHT22;63444;48.148;11.542;2023-04-03T04:21:10;5.10;99.90
45012;DHT22;63444;48.148;11.542;2023-04-03T04:23:35;5.10;99.90
45012;DHT22;63444;48.148;11.542;2023-04-03T04:26:01;5.10;99.90
45012;DHT22;63444;48.148;11.542;2023-04-03T04:28:26;5.00;99.90
45012;DHT22;63444;48.148;11.542;2023-04-03T04:30:53;5.00;99.90
45012;DHT22;63444;48.148;11.542;2023-04-03T04:33:18;5.00;99.90
45012;DHT22;63444;48.148;11.542;2023-04-03T04:35:48;5.00;99.90
45012;DHT22;63444;48.148;11.542;2023-04-03T04:38:14;4.90;99.90
45012;DHT22;63444;48.148;11.542;2023-04-03T04:40:39;4.90;99.90
45012;DHT22;63444;48.148;11.542;2023-04-03T04:43:05;4.90;99.90
45012;DHT22;63444;48.148;11.542;2023-04-03T04:45:31;5.00;99.90
45012;DHT22;63444;48.148;11.542;2023-04-03T04:47:57;5.00;99.90
45012;DHT22;63444;48.148;11.542;2023-04-03T04:50:24;5.00;99.90
45012;DHT22;63444;48.148;11.542;2023-04-03T04:52:50;5.00;99.90
45012;DHT22;63444;48.148;11.542;2023-04-03T04:55:15;5.00;99.90
45012;DHT22;63444;48.148;11.542;2023-04-03T04:57:41;5.10;99.90
45012;DHT22;63444;48.148;11.542;2023-04-03T05:00:08;5.10;99.90
45012;DHT22;63444;48.148;11.542;2023-04-03T05:02:35;5.10;99.90
45012;DHT22;63444;48.148;11.542;2023-04-03T05:05:00;5.00;99.90
45012;DHT22;63444;48.148;11.542;2023-04-03T05:07:26;5.10;99.90
45012;DHT22;63444;48.148;11.542;2023-04-03T05:09:52;5.00;99.90
45012;DHT22;63444;48.148;11.542;2023-04-03T05:12:18;5.00;99.90
45012;DHT22;63444;48.148;11.542;2023-04-03T05:14:45;5.30;99.90
45012;DHT22;63444;48.148;11.542;2023-04-03T05:17:13;5.00;99.90
45012;DHT22;63444;48.148;11.542;2023-04-03T05:19:39;5.00;99.90
45012;DHT22;63444;48.148;11.542;2023-04-03T05:22:14;5.10;99.90
45012;DHT22;63444;48.148;11.542;2023-04-03T05:24:40;5.10;99.90
45012;DHT22;63444;48.148;11.542;2023-04-03T05:27:06;5.10;99.90
45012;DHT22;63444;48.148;11.542;2023-04-03T05:29:31;5.10;99.90
45012;DHT22;63444;48.148;11.542;2023-04-03T05:31:57;5.20;99.90
45012;DHT22;63444;48.148;11.542;2023-04-03T05:34:24;5.30;99.90
45012;DHT22;63444;48.148;11.542;2023-04-03T05:36:51;5.30;99.90
45012;DHT22;63444;48.148;11.542;2023-04-03T05:39:18;5.30;99.90
45012;DHT22;63444;48.148;11.542;2023-04-03T05:41:45;5.30;99.90
45012;DHT22;63444;48.148;11.542;2023-04-03T05:44:11;5.30;99.90
45012;DHT22;63444;48.148;11.542;2023-04-03T05:46:41;5.30;99.90
45012;DHT22;63444;48.148;11.542;2023-04-03T05:49:09;5.30;99.90
45012;DHT22;63444;48.148;11.542;2023-04-03T05:51:41;5.30;99.90
45012;DHT22;63444;48.148;11.542;2023-04-03T05:54:23;5.30;99.90
45012;DHT22;63444;48.148;11.542;2023-04-03T05:56:49;5.30;99.90
45012;DHT22;63444;48.148;11.542;2023-04-03T05:59:16;5.40;99.90
45012;DHT22;63444;48.148;11.542;2023-04-03T06:01:42;5.50;99.90
45012;DHT22;63444;48.148;11.542;2023-04-03T06:04:08;5.30;99.90
45012;DHT22;63444;48.148;11.542;2023-04-03T06:06:54;5.40;99.90
45012;DHT22;63444;48.148;11.542;2023-04-03T06:09:23;5.40;99.90
45012;DHT22;63444;48.148;11.542;2023-04-03T06:11:49;5.40;99.90
45012;DHT22;63444;48.148;11.542;2023-04-03T06:14:16;5.40;99.90
45012;DHT22;63444;48.148;11.542;2023-04-03T06:16:42;5.40;99.90
45012;DHT22;63444;48.148;11.542;2023-04-03T06:19:09;5.40;99.90
45012;DHT22;63444;48.148;11.542;2023-04-03T06:21:36;5.40;99.90
45012;DHT22;63444;48.148;11.542;2023-04-03T06:24:03;5.50;99.90
45012;DHT22;63444;48.148;11.542;2023-04-03T06:26:29;5.50;99.90
45012;DHT22;63444;48.148;11.542;2023-04-03T06:28:55;5.50;99.90
45012;DHT22;63444;48.148;11.542;2023-04-03T06:31:21;5.60;99.90
45012;DHT22;63444;48.148;11.542;2023-04-03T06:33:48;5.30;99.90
45012;DHT22;63444;48.148;11.542;2023-04-03T06:36:14;5.60;99.90
45012;DHT22;63444;48.148;11.542;2023-04-03T06:38:39;5.40;99.90
45012;DHT22;63444;48.148;11.542;2023-04-03T06:41:05;5.30;99.90
45012;DHT22;63444;48.148;11.542;2023-04-03T06:43:31;5.30;99.90
45012;DHT22;63444;48.148;11.542;2023-04-03T06:45:57;5.30;99.90
45012;DHT22;63444;48.148;11.542;2023-04-03T06:48:23;5.30;99.90
45012;DHT22;63444;48.148;11.542;2023-04-03T06:50:48;5.40;99.90
45012;DHT22;63444;48.148;11.542;2023-04-03T06:53:14;5.40;99.90
45012;DHT22;63444;48.148;11.542;2023-04-03T06:55:40;5.50;99.90
45012;DHT22;63444;48.148;11.542;2023-04-03T06:58:07;5.50;99.90
45012;DHT22;63444;48.148;11.542;2023-04-03T07:00:33;5.50;99.90
45012;DHT22;63444;48.148;11.542;2023-04-03T07:02:59;5.50;99.90
45012;DHT22;63444;48.148;11.542;2023-04-03T07:05:25;5.50;99.90
45012;DHT22;63444;48.148;11.542;2023-04-03T07:07:51;5.60;99.90
45012;DHT22;63444;48.148;11.542;2023-04-03T07:10:17;5.70;99.90
45012;DHT22;63444;48.148;11.542;2023-04-03T07:12:43;5.60;99.90
45012;DHT22;63444;48.148;11.542;2023-04-03T07:15:10;5.70;99.90
45012;DHT22;63444;48.148;11.542;2023-04-03T07:17:36;5.70;99.90
45012;DHT22;63444;48.148;11.542;2023-04-03T07:20:03;5.70;99.90
45012;DHT22;63444;48.148;11.542;2023-04-03T07:22:30;5.80;99.90
45012;DHT22;63444;48.148;11.542;2023-04-03T07:24:56;5.80;99.90
45012;DHT22;63444;48.148;11.542;2023-04-03T07:27:24;5.80;99.90
45012;DHT22;63444;48.148;11.542;2023-04-03T07:29:50;6.00;99.90
45012;DHT22;63444;48.148;11.542;2023-04-03T07:32:17;5.90;99.90
45012;DHT22;63444;48.148;11.542;2023-04-03T07:34:43;6.00;99.90
45012;DHT22;63444;48.148;11.542;2023-04-03T07:37:09;6.00;99.90
45012;DHT22;63444;48.148;11.542;2023-04-03T07:39:35;6.00;99.90
45012;DHT22;63444;48.148;11.542;2023-04-03T07:42:02;6.00;99.90
45012;DHT22;63444;48.148;11.542;2023-04-03T07:44:28;5.90;99.90
45012;DHT22;63444;48.148;11.542;2023-04-03T07:46:54;6.00;99.90
45012;DHT22;63444;48.148;11.542;2023-04-03T07:49:22;6.10;99.90
45012;DHT22;63444;48.148;11.542;2023-04-03T07:51:50;6.10;99.90
45012;DHT22;63444;48.148;11.542;2023-04-03T07:54:16;6.10;99.90
45012;DHT22;63444;48.148;11.542;2023-04-03T07:56:43;6.20;99.90
45012;DHT22;63444;48.148;11.542;2023-04-03T07:59:10;6.20;99.90
45012;DHT22;63444;48.148;11.542;2023-04-03T08:01:37;6.20;99.90
45012;DHT22;63444;48.148;11.542;2023-04-03T08:04:03;6.10;99.90
45012;DHT22;63444;48.148;11.542;2023-04-03T08:06:30;6.10;99.90
45012;DHT22;63444;48.148;11.542;2023-04-03T08:08:57;6.20;99.90
45012;DHT22;63444;48.148;11.542;2023-04-03T08:11:24;6.00;99.90
45012;DHT22;63444;48.148;11.542;2023-04-03T08:13:52;5.90;99.90
45012;DHT22;63444;48.148;11.542;2023-04-03T08:16:25;5.90;99.90
45012;DHT22;63444;48.148;11.542;2023-04-03T08:18:54;5.90;99.90
45012;DHT22;63444;48.148;11.542;2023-04-03T08:21:20;6.10;99.90
45012;DHT22;63444;48.148;11.542;2023-04-03T08:23:51;5.80;99.90
45012;DHT22;63444;48.148;11.542;2023-04-03T08:26:29;5.70;99.90
45012;DHT22;63444;48.148;11.542;2023-04-03T08:29:17;5.70;99.90
45012;DHT22;63444;48.148;11.542;2023-04-03T08:31:50;5.70;99.90
45012;DHT22;63444;48.148;11.542;2023-04-03T08:34:18;5.60;99.90
45012;DHT22;63444;48.148;11.542;2023-04-03T08:36:46;5.70;99.90
45012;DHT22;63444;48.148;11.542;2023-04-03T08:39:13;5.70;99.90
45012;DHT22;63444;48.148;11.542;2023-04-03T08:41:42;5.70;99.90
45012;DHT22;63444;48.148;11.542;2023-04-03T08:44:41;5.90;99.90
45012;DHT22;63444;48.148;11.542;2023-04-03T08:47:28;6.00;99.90
45012;DHT22;63444;48.148;11.542;2023-04-03T08:50:03;6.10;99.90
45012;DHT22;63444;48.148;11.542;2023-04-03T08:52:49;6.10;99.90
45012;DHT22;63444;48.148;11.542;2023-04-03T08:55:29;5.90;99.90
45012;DHT22;63444;48.148;11.542;2023-04-03T08:58:06;5.90;99.90
45012;DHT22;63444;48.148;11.542;2023-04-03T09:00:49;6.00;99.90
45012;DHT22;63444;48.148;11.542;2023-04-03T09:03:18;6.00;99.90
45012;DHT22;63444;48.148;11.542;2023-04-03T09:06:00;6.10;99.90
45012;DHT22;63444;48.148;11.542;2023-04-03T09:08:45;6.10;99.90
45012;DHT22;63444;48.148;11.542;2023-04-03T09:17:08;6.30;99.90
45012;DHT22;63444;48.148;11.542;2023-04-03T09:22:40;6.40;99.90
45012;DHT22;63444;48.148;11.542;2023-04-03T09:27:43;6.50;99.90
45012;DHT22;63444;48.148;11.542;2023-04-03T09:30:16;6.50;99.90
45012;DHT22;63444;48.148;11.542;2023-04-03T09:32:45;6.60;99.80
45012;DHT22;63444;48.148;11.542;2023-04-03T09:35:27;6.60;99.80
45012;DHT22;63444;48.148;11.542;2023-04-03T09:37:58;6.70;99.40
45012;DHT22;63444;48.148;11.542;2023-04-03T09:42:55;6.80;99.20
45012;DHT22;63444;48.148;11.542;2023-04-03T09:45:35;6.70;98.90
45012;DHT22;63444;48.148;11.542;2023-04-03T09:50:58;6.70;98.70
45012;DHT22;63444;48.148;11.542;2023-04-03T09:53:44;6.70;99.10
45012;DHT22;63444;48.148;11.542;2023-04-03T09:58:43;6.80;99.70
45012;DHT22;63444;48.148;11.542;2023-04-03T10:04:18;6.60;99.60
45012;DHT22;63444;48.148;11.542;2023-04-03T10:06:55;6.50;99.70
45012;DHT22;63444;48.148;11.542;2023-04-03T10:09:26;6.50;99.70
45012;DHT22;63444;48.148;11.542;2023-04-03T10:14:56;6.50;99.20
45012;DHT22;63444;48.148;11.542;2023-04-03T10:17:45;6.40;99.40
45012;DHT22;63444;48.148;11.542;2023-04-03T10:23:26;6.40;99.90
45012;DHT22;63444;48.148;11.542;2023-04-03T10:29:16;6.50;99.70
45012;DHT22;63444;48.148;11.542;2023-04-03T10:35:32;6.60;99.90
45012;DHT22;63444;48.148;11.542;2023-04-03T10:41:16;6.50;99.90
45012;DHT22;63444;48.148;11.542;2023-04-03T10:46:45;6.60;99.70
45012;DHT22;63444;48.148;11.542;2023-04-03T10:51:51;6.50;98.60
45012;DHT22;63444;48.148;11.542;2023-04-03T10:54:25;6.50;98.60
45012;DHT22;63444;48.148;11.542;2023-04-03T10:57:18;6.40;98.60
45012;DHT22;63444;48.148;11.542;2023-04-03T10:59:53;6.40;99.00
45012;DHT22;63444;48.148;11.542;2023-04-03T11:02:41;6.40;99.30
45012;DHT22;63444;48.148;11.542;2023-04-03T11:07:50;6.10;99.90
45012;DHT22;63444;48.148;11.542;2023-04-03T11:10:35;6.10;99.90
45012;DHT22;63444;48.148;11.542;2023-04-03T11:15:57;6.10;99.90
45012;DHT22;63444;48.148;11.542;2023-04-03T11:18:31;6.00;99.90
45012;DHT22;63444;48.148;11.542;2023-04-03T11:21:04;6.00;99.90
45012;DHT22;63444;48.148;11.542;2023-04-03T11:23:36;6.00;99.90
45012;DHT22;63444;48.148;11.542;2023-04-03T11:26:22;6.10;99.90
45012;DHT22;63444;48.148;11.542;2023-04-03T11:29:01;6.20;99.90
45012;DHT22;63444;48.148;11.542;2023-04-03T11:34:06;6.30;99.90
45012;DHT22;63444;48.148;11.542;2023-04-03T11:36:45;6.40;99.50
45012;DHT22;63444;48.148;11.542;2023-04-03T11:39:26;6.50;99.00
45012;DHT22;63444;48.148;11.542;2023-04-03T11:41:54;6.60;98.90
45012;DHT22;63444;48.148;11.542;2023-04-03T11:47:01;6.60;97.90
45012;DHT22;63444;48.148;11.542;2023-04-03T11:49:55;6.60;97.80
45012;DHT22;63444;48.148;11.542;2023-04-03T11:58:11;6.90;97.00
45012;DHT22;63444;48.148;11.542;2023-04-03T12:16:41;7.30;92.90
45012;DHT22;63444;48.148;11.542;2023-04-03T12:19:35;7.30;92.60
45012;DHT22;63444;48.148;11.542;2023-04-03T12:24:33;7.40;91.70
45012;DHT22;63444;48.148;11.542;2023-04-03T12:32:48;7.40;91.30
45012;DHT22;63444;48.148;11.542;2023-04-03T12:46:47;7.60;90.20
45012;DHT22;63444;48.148;11.542;2023-04-03T12:49:39;7.60;89.70
45012;DHT22;63444;48.148;11.542;2023-04-03T12:52:30;7.60;89.60
45012;DHT22;63444;48.148;11.542;2023-04-03T12:54:56;7.60;89.90
45012;DHT22;63444;48.148;11.542;2023-04-03T12:57:25;7.70;88.70
45012;DHT22;63444;48.148;11.542;2023-04-03T12:59:52;7.70;87.20
45012;DHT22;63444;48.148;11.542;2023-04-03T13:04:53;7.70;85.70
45012;DHT22;63444;48.148;11.542;2023-04-03T13:07:28;7.70;86.10
45012;DHT22;63444;48.148;11.542;2023-04-03T13:10:03;7.80;86.60
45012;DHT22;63444;48.148;11.542;2023-04-03T13:12:29;7.80;86.90
45012;DHT22;63444;48.148;11.542;2023-04-03T13:14:58;7.90;87.40
45012;DHT22;63444;48.148;11.542;2023-04-03T13:17:25;7.90;87.30
45012;DHT22;63444;48.148;11.542;2023-04-03T13:19:51;7.90;85.70
45012;DHT22;63444;48.148;11.542;2023-04-03T13:22:40;7.90;85.90
45012;DHT22;63444;48.148;11.542;2023-04-03T13:25:11;7.90;85.20
45012;DHT22;63444;48.148;11.542;2023-04-03T13:27:40;7.90;85.70
45012;DHT22;63444;48.148;11.542;2023-04-03T13:32:45;7.90;87.30
45012;DHT22;63444;48.148;11.542;2023-04-03T13:38:06;8.00;83.30
45012;DHT22;63444;48.148;11.542;2023-04-03T13:40:31;8.10;82.40
45012;DHT22;63444;48.148;11.542;2023-04-03T13:43:18;8.10;82.40
45012;DHT22;63444;48.148;11.542;2023-04-03T13:46:05;8.10;82.60
45012;DHT22;63444;48.148;11.542;2023-04-03T13:48:46;8.00;83.40
45012;DHT22;63444;48.148;11.542;2023-04-03T13:53:59;7.90;84.80
45012;DHT22;63444;48.148;11.542;2023-04-03T13:56:34;7.90;84.80
45012;DHT22;63444;48.148;11.542;2023-04-03T14:01:54;7.90;83.70
45012;DHT22;63444;48.148;11.542;2023-04-03T14:04:27;8.00;83.60
45012;DHT22;63444;48.148;11.542;2023-04-03T14:06:55;7.90;83.10
45012;DHT22;63444;48.148;11.542;2023-04-03T14:09:24;7.90;82.90
45012;DHT22;63444;48.148;11.542;2023-04-03T14:11:53;7.90;83.30
45012;DHT22;63444;48.148;11.542;2023-04-03T14:14:32;8.00;83.70
45012;DHT22;63444;48.148;11.542;2023-04-03T14:17:01;8.00;83.00
45012;DHT22;63444;48.148;11.542;2023-04-03T14:19:31;8.00;82.70
45012;DHT22;63444;48.148;11.542;2023-04-03T14:21:58;8.00;82.50
45012;DHT22;63444;48.148;11.542;2023-04-03T14:24:24;8.00;82.20
45012;DHT22;63444;48.148;11.542;2023-04-03T14:26:52;8.00;82.30
45012;DHT22;63444;48.148;11.542;2023-04-03T14:29:19;7.90;82.10
45012;DHT22;63444;48.148;11.542;2023-04-03T14:31:47;8.00;81.90
45012;DHT22;63444;48.148;11.542;2023-04-03T14:34:13;8.10;81.40
45012;DHT22;63444;48.148;11.542;2023-04-03T14:36:41;8.20;81.10
45012;DHT22;63444;48.148;11.542;2023-04-03T14:39:11;8.20;81.30
45012;DHT22;63444;48.148;11.542;2023-04-03T14:41:41;8.00;80.90
45012;DHT22;63444;48.148;11.542;2023-04-03T14:44:07;8.00;80.80
45012;DHT22;63444;48.148;11.542;2023-04-03T14:46:35;8.10;79.30
45012;DHT22;63444;48.148;11.542;2023-04-03T14:49:06;8.10;79.80
45012;DHT22;63444;48.148;11.542;2023-04-03T14:51:37;8.20;80.20
45012;DHT22;63444;48.148;11.542;2023-04-03T14:54:03;8.30;79.40
45012;DHT22;63444;48.148;11.542;2023-04-03T14:56:30;8.30;79.10
45012;DHT22;63444;48.148;11.542;2023-04-03T14:58:58;8.40;79.10
45012;DHT22;63444;48.148;11.542;2023-04-03T15:01:25;8.40;77.90
45012;DHT22;63444;48.148;11.542;2023-04-03T15:03:51;8.40;77.40
45012;DHT22;63444;48.148;11.542;2023-04-03T15:06:17;8.40;76.40
45012;DHT22;63444;48.148;11.542;2023-04-03T15:08:44;8.50;75.90
45012;DHT22;63444;48.148;11.542;2023-04-03T15:11:11;8.30;75.50
45012;DHT22;63444;48.148;11.542;2023-04-03T15:13:37;8.30;76.10
45012;DHT22;63444;48.148;11.542;2023-04-03T15:16:03;8.30;74.20
45012;DHT22;63444;48.148;11.542;2023-04-03T15:18:34;8.30;73.80
45012;DHT22;63444;48.148;11.542;2023-04-03T15:21:00;8.20;73.80
45012;DHT22;63444;48.148;11.542;2023-04-03T15:23:27;8.30;74.50
45012;DHT22;63444;48.148;11.542;2023-04-03T15:25:53;8.20;73.50
45012;DHT22;63444;48.148;11.542;2023-04-03T15:28:38;8.10;72.90
45012;DHT22;63444;48.148;11.542;2023-04-03T15:31:04;8.10;71.60
45012;DHT22;63444;48.148;11.542;2023-04-03T15:33:31;8.00;71.40
45012;DHT22;63444;48.148;11.542;2023-04-03T15:35:57;8.00;71.30
45012;DHT22;63444;48.148;11.542;2023-04-03T15:38:22;8.00;71.50
45012;DHT22;63444;48.148;11.542;2023-04-03T15:40:48;8.00;71.50
45012;DHT22;63444;48.148;11.542;2023-04-03T15:43:14;8.00;70.70
45012;DHT22;63444;48.148;11.542;2023-04-03T15:45:40;8.00;70.30
45012;DHT22;63444;48.148;11.542;2023-04-03T15:48:06;8.00;70.30
45012;DHT22;63444;48.148;11.542;2023-04-03T15:50:34;8.00;70.60
45012;DHT22;63444;48.148;11.542;2023-04-03T15:53:00;7.90;69.40
45012;DHT22;63444;48.148;11.542;2023-04-03T15:55:28;7.80;68.80
45012;DHT22;63444;48.148;11.542;2023-04-03T15:57:55;7.80;68.30
45012;DHT22;63444;48.148;11.542;2023-04-03T16:00:21;7.90;68.60
45012;DHT22;63444;48.148;11.542;2023-04-03T16:02:50;7.80;68.70
45012;DHT22;63444;48.148;11.542;2023-04-03T16:05:17;7.80;69.00
45012;DHT22;63444;48.148;11.542;2023-04-03T16:07:44;7.80;68.70
45012;DHT22;63444;48.148;11.542;2023-04-03T16:10:12;7.80;69.30
45012;DHT22;63444;48.148;11.542;2023-04-03T16:12:38;7.80;70.40
45012;DHT22;63444;48.148;11.542;2023-04-03T16:15:05;7.80;71.10
45012;DHT22;63444;48.148;11.542;2023-04-03T16:17:32;7.80;71.30
45012;DHT22;63444;48.148;11.542;2023-04-03T16:19:58;7.80;71.30
45012;DHT22;63444;48.148;11.542;2023-04-03T16:22:26;7.70;71.80
45012;DHT22;63444;48.148;11.542;2023-04-03T16:24:53;7.70;71.60
45012;DHT22;63444;48.148;11.542;2023-04-03T16:27:19;7.70;71.70
45012;DHT22;63444;48.148;11.542;2023-04-03T16:29:45;7.70;71.80
45012;DHT22;63444;48.148;11.542;2023-04-03T16:32:11;7.60;71.10
45012;DHT22;63444;48.148;11.542;2023-04-03T16:34:38;7.70;71.50
45012;DHT22;63444;48.148;11.542;2023-04-03T16:37:06;7.60;70.70
45012;DHT22;63444;48.148;11.542;2023-04-03T16:39:34;7.60;70.50
45012;DHT22;63444;48.148;11.542;2023-04-03T16:42:01;7.60;70.20
45012;DHT22;63444;48.148;11.542;2023-04-03T16:44:27;7.50;70.40
45012;DHT22;63444;48.148;11.542;2023-04-03T16:46:52;7.40;70.90
45012;DHT22;63444;48.148;11.542;2023-04-03T16:49:18;7.40;70.70
45012;DHT22;63444;48.148;11.542;2023-04-03T16:51:43;7.40;70.70
45012;DHT22;63444;48.148;11.542;2023-04-03T16:54:11;7.40;70.00
45012;DHT22;63444;48.148;11.542;2023-04-03T16:56:38;7.40;68.80
45012;DHT22;63444;48.148;11.542;2023-04-03T16:59:04;7.30;68.60
45012;DHT22;63444;48.148;11.542;2023-04-03T17:01:30;7.30;69.10
45012;DHT22;63444;48.148;11.542;2023-04-03T17:03:56;7.20;69.80
45012;DHT22;63444;48.148;11.542;2023-04-03T17:06:22;7.10;70.40
45012;DHT22;63444;48.148;11.542;2023-04-03T17:08:50;7.10;70.80
45012;DHT22;63444;48.148;11.542;2023-04-03T17:11:17;7.10;71.50
45012;DHT22;63444;48.148;11.542;2023-04-03T17:13:43;7.10;71.90
45012;DHT22;63444;48.148;11.542;2023-04-03T17:16:12;7.10;71.90
45012;DHT22;63444;48.148;11.542;2023-04-03T17:18:38;7.10;71.70
45012;DHT22;63444;48.148;11.542;2023-04-03T17:21:05;7.10;71.80
45012;DHT22;63444;48.148;11.542;2023-04-03T17:23:34;7.20;72.40
45012;DHT22;63444;48.148;11.542;2023-04-03T17:26:01;7.10;72.10
45012;DHT22;63444;48.148;11.542;2023-04-03T17:28:27;7.10;72.70
45012;DHT22;63444;48.148;11.542;2023-04-03T17:30:54;7.10;73.00
45012;DHT22;63444;48.148;11.542;2023-04-03T17:33:22;7.10;73.30
45012;DHT22;63444;48.148;11.542;2023-04-03T17:35:48;7.00;73.60